Time;durP1;ratioP1;P1;durP2;ratioP2;P2;SDS_P1;SDS_P2;PMS_P1;PMS_P2;Temp;Humidity;BMP_temperature;BMP_pressure;BME280_temperature;BME280_humidity;BME280_pressure;Samples;Min_cycle;Max_cycle;Signal;HPM_P1;HPM_P2
2023/10/29 00:02:13;;;;;;;68.82;23.33;;;;;;;14.69;70.90;99886.38;10452518;28;20384;-60
2023/10/29 00:07:13;;;;;;;51.60;23.63;;;;;;;14.58;70.80;99862.94;10449047;28;20036;-60
2023/10/29 00:12:14;;;;;;;66.63;24.85;;;;;;;15.00;70.71;99920.50;10451760;28;20048;-60
2023/10/29 00:17:16;;;;;;;62.38;27.88;;;;;;;15.06;70.01;99897.44;10451061;28;20074;-60
2023/10/29 00:22:17;;;;;;;64.13;25.67;;;;;;;14.89;70.68;99899.72;10450974;28;20068;-60
2023/10/29 00:27:17;;;;;;;57.85;25.30;;;;;;;14.56;71.31;99887.19;10450668;28;20044;-60
2023/10/29 00:32:21;;;;;;;50.13;22.30;;;;;;;14.26;71.91;99875.22;10450512;28;20041;-60
2023/10/29 00:37:22;;;;;;;45.70;21.70;;;;;;;14.63;71.62;99926.47;10450832;28;20049;-60
2023/10/29 00:42:23;;;;;;;48.80;21.02;;;;;;;14.76;71.91;99950.53;10451248;28;20041;-60
2023/10/29 00:47:24;;;;;;;52.55;21.17;;;;;;;14.64;72.18;99954.84;10449786;28;20037;-61
2023/10/29 00:52:25;;;;;;;43.72;20.73;;;;;;;14.58;72.27;99959.97;10450679;28;20040;-60
2023/10/29 00:57:26;;;;;;;57.38;20.88;;;;;;;14.22;73.00;99911.38;10449633;28;20045;-62
2023/10/29 01:02:26;;;;;;;51.40;21.30;;;;;;;14.55;73.24;99973.75;10449911;28;20527;-61
2023/10/29 01:07:27;;;;;;;40.33;18.33;;;;;;;14.67;73.74;99970.47;10449400;28;20052;-61
2023/10/29 01:12:28;;;;;;;49.45;21.00;;;;;;;14.75;73.49;100002.38;10449551;28;20037;-60
2023/10/29 01:17:29;;;;;;;43.25;18.88;;;;;;;14.83;73.41;99999.50;10449456;28;20041;-61
2023/10/29 01:22:30;;;;;;;47.10;19.10;;;;;;;14.80;73.89;99994.56;10449442;28;20036;-60
2023/10/29 01:27:30;;;;;;;38.05;16.70;;;;;;;14.89;74.35;99992.50;10448469;28;20079;-60
2023/10/29 01:32:32;;;;;;;23.65;10.65;;;;;;;15.35;74.80;99997.88;10449105;28;20044;-61
2023/10/29 01:37:32;;;;;;;23.40;9.93;;;;;;;15.75;74.74;99998.63;10448192;28;20052;-60
2023/10/29 01:42:33;;;;;;;16.63;7.35;;;;;;;16.48;73.90;99996.66;10448957;28;20033;-61
2023/10/29 01:47:34;;;;;;;17.38;6.28;;;;;;;16.72;73.61;100016.53;10448794;28;20072;-61
2023/10/29 01:52:38;;;;;;;15.82;4.97;;;;;;;17.08;73.90;100032.00;10448458;28;20044;-61
2023/10/29 01:57:39;;;;;;;18.55;4.03;;;;;;;17.15;72.53;99976.41;10448637;28;20051;-61
2023/10/29 02:02:40;;;;;;;17.45;4.32;;;;;;;17.56;72.43;100042.97;10448410;28;20120;-61
2023/10/29 02:07:41;;;;;;;16.83;4.57;;;;;;;17.68;72.07;100044.91;10447460;28;20079;-61
2023/10/29 02:12:41;;;;;;;17.73;4.68;;;;;;;17.70;71.72;100050.88;10448055;28;20041;-62
2023/10/29 02:17:42;;;;;;;18.73;5.25;;;;;;;17.50;71.99;100049.22;10447969;28;20041;-61
2023/10/29 02:22:43;;;;;;;18.55;4.28;;;;;;;17.53;72.31;100069.44;10447750;28;20044;-61
2023/10/29 02:27:44;;;;;;;19.13;4.80;;;;;;;17.33;72.56;100038.22;10447517;28;20444;-61
2023/10/29 02:32:45;;;;;;;18.33;5.40;;;;;;;17.21;72.59;100013.13;10455152;28;20080;-61
2023/10/29 02:37:46;;;;;;;10.98;4.07;;;;;;;17.52;72.21;100057.03;10454860;28;20064;-61
2023/10/29 02:42:47;;;;;;;13.95;4.63;;;;;;;17.52;72.19;100057.84;10454559;28;20046;-61
2023/10/29 02:47:49;;;;;;;13.63;3.70;;;;;;;17.51;72.34;100071.53;10453781;28;20033;-61
2023/10/29 02:52:49;;;;;;;13.13;3.42;;;;;;;17.53;71.88;100059.53;10452720;28;20128;-61
2023/10/29 02:57:50;;;;;;;13.43;3.55;;;;;;;17.73;71.94;100096.94;10454260;28;20033;-61
2023/10/29 03:02:51;;;;;;;15.75;3.55;;;;;;;17.60;71.64;100069.38;10448123;28;20044;-60
2023/10/29 03:07:52;;;;;;;15.30;3.53;;;;;;;17.36;71.98;100046.88;10432175;28;20405;-61
2023/10/29 03:12:52;;;;;;;11.18;3.28;;;;;;;17.64;72.39;100135.84;10411991;28;20056;-61
2023/10/29 03:17:53;;;;;;;11.07;3.00;;;;;;;17.67;72.15;100131.91;10447474;28;20120;-62
2023/10/29 03:22:54;;;;;;;14.90;2.97;;;;;;;17.40;71.68;100096.41;10453707;28;20036;-61
2023/10/29 03:27:56;;;;;;;17.05;3.45;;;;;;;17.40;71.83;100097.22;10452942;28;20117;-62
2023/10/29 03:32:57;;;;;;;13.32;3.50;;;;;;;17.85;71.56;100177.66;10413661;28;20136;-61
2023/10/29 03:37:58;;;;;;;18.45;3.45;;;;;;;17.79;71.67;100176.69;10410432;28;20060;-62
2023/10/29 03:42:58;;;;;;;14.23;3.63;;;;;;;17.69;72.07;100167.44;10411707;28;20053;-61
2023/10/29 03:47:59;;;;;;;13.90;3.10;;;;;;;17.64;72.11;100169.97;10410685;28;20080;-61
2023/10/29 03:53:00;;;;;;;13.55;3.28;;;;;;;17.47;72.57;100157.09;10411712;28;20052;-62
2023/10/29 03:58:00;;;;;;;11.02;3.17;;;;;;;17.49;72.72;100176.47;10410715;28;20128;-61
2023/10/29 04:03:01;;;;;;;13.82;3.25;;;;;;;17.70;72.29;100186.03;10410654;28;20037;-61
2023/10/29 04:08:02;;;;;;;11.98;3.03;;;;;;;17.63;72.15;100166.47;10410063;28;20500;-61
2023/10/29 04:13:03;;;;;;;13.48;3.08;;;;;;;17.82;72.34;100196.09;10420489;28;20037;-61
2023/10/29 04:18:04;;;;;;;18.20;3.47;;;;;;;17.86;72.36;100218.78;10450251;28;20553;-62
2023/10/29 04:23:05;;;;;;;12.43;3.75;;;;;;;17.84;72.24;100221.72;10451800;28;20117;-61
2023/10/29 04:28:06;;;;;;;11.73;3.50;;;;;;;18.18;71.38;100241.06;10450464;28;20076;-61
2023/10/29 04:33:07;;;;;;;8.40;2.83;;;;;;;18.29;70.66;100223.41;10450677;28;20044;-62
2023/10/29 04:38:08;;;;;;;14.55;3.58;;;;;;;18.68;69.82;100265.22;10451416;28;20108;-62
2023/10/29 04:43:09;;;;;;;12.95;3.65;;;;;;;18.48;70.50;100268.91;10450331;28;20044;-63
2023/10/29 04:48:10;;;;;;;13.38;2.92;;;;;;;18.30;71.25;100278.81;10451426;28;20488;-62
2023/10/29 04:53:10;;;;;;;10.00;3.47;;;;;;;18.24;71.76;100281.34;10448850;28;20037;-63
2023/10/29 04:58:11;;;;;;;15.63;3.30;;;;;;;18.15;72.28;100314.09;10449783;28;20089;-62
2023/10/29 05:03:12;;;;;;;10.85;3.67;;;;;;;17.95;73.31;100288.19;10450723;28;20040;-61
2023/10/29 05:08:12;;;;;;;14.88;4.38;;;;;;;17.21;74.74;100206.41;10433292;28;20044;-63
2023/10/29 05:13:13;;;;;;;15.43;3.88;;;;;;;17.56;76.80;100313.44;10408705;28;20462;-62
2023/10/29 05:18:14;;;;;;;12.52;3.55;;;;;;;17.45;78.29;100347.13;10407891;28;20042;-62
2023/10/29 05:23:15;;;;;;;12.45;3.85;;;;;;;17.14;78.89;100318.34;10407644;28;20033;-62
2023/10/29 05:28:16;;;;;;;14.40;3.65;;;;;;;17.49;78.72;100374.38;10407927;28;20048;-63
2023/10/29 05:33:17;;;;;;;10.48;3.65;;;;;;;17.58;78.43;100357.00;10440066;28;20056;-61
2023/10/29 05:38:18;;;;;;;14.38;3.55;;;;;;;17.33;78.43;100293.28;10409933;28;20053;-61
2023/10/29 05:43:18;;;;;;;16.33;3.95;;;;;;;17.68;78.11;100330.50;10417405;28;20141;-61
2023/10/29 05:48:19;;;;;;;17.92;3.78;;;;;;;17.48;78.24;100297.56;10442449;28;20453;-62
2023/10/29 05:53:22;;;;;;;10.70;2.13;;;;;;;17.44;75.80;100321.31;10448342;28;20052;-61
2023/10/29 05:58:26;;;;;;;8.57;1.80;;;;;;;17.56;73.72;100357.22;10448314;28;20064;-61
2023/10/29 06:03:27;;;;;;;6.97;2.47;;;;;;;17.54;72.56;100337.78;10447380;28;20084;-59
2023/10/29 06:08:28;;;;;;;7.75;2.00;;;;;;;17.70;72.08;100343.72;10441689;28;20045;-62
2023/10/29 06:13:28;;;;;;;11.27;2.58;;;;;;;17.89;71.97;100342.81;10431971;28;20049;-61
2023/10/29 06:18:29;;;;;;;7.68;2.22;;;;;;;17.95;71.80;100344.66;10429154;28;20034;-62
2023/10/29 06:23:30;;;;;;;9.90;2.60;;;;;;;17.94;71.33;100345.66;10421019;28;20037;-59
2023/10/29 06:28:31;;;;;;;7.25;2.42;;;;;;;17.91;69.75;100334.53;10420223;28;20412;-60
2023/10/29 06:33:32;;;;;;;11.30;2.63;;;;;;;17.95;68.94;100386.81;10419450;28;20051;-61
2023/10/29 06:38:33;;;;;;;6.57;1.88;;;;;;;17.76;68.03;100428.81;10417217;28;20042;-60
2023/10/29 06:43:34;;;;;;;6.78;1.50;;;;;;;17.46;65.28;100436.56;10405598;28;20063;-61
2023/10/29 06:48:41;;;;;;;10.68;3.50;;;;;;;17.21;65.69;100417.66;10405530;28;20080;-59
2023/10/29 06:53:42;;;;;;;15.35;6.47;;;;;;;17.16;68.40;100404.03;10406329;28;20481;-60
2023/10/29 06:58:42;;;;;;;15.52;3.97;;;;;;;17.00;70.51;100389.19;10405395;28;20084;-60
2023/10/29 07:03:43;;;;;;;6.63;2.28;;;;;;;16.14;71.60;100254.09;10405796;28;20037;-60
2023/10/29 07:08:47;;;;;;;5.88;1.70;;;;;;;16.59;71.42;100339.25;10403493;28;20042;-60
2023/10/29 07:13:48;;;;;;;5.82;1.52;;;;;;;16.33;71.77;100348.97;10423499;28;20044;-61
2023/10/29 07:18:49;;;;;;;8.13;1.95;;;;;;;16.22;72.86;100372.88;10426843;28;20041;-61
2023/10/29 07:23:50;;;;;;;5.25;1.63;;;;;;;16.25;73.94;100385.88;10447002;28;20534;-61
2023/10/29 07:28:50;;;;;;;7.38;1.83;;;;;;;16.22;74.90;100415.75;10449872;28;20056;-61
2023/10/29 07:33:52;;;;;;;5.13;1.88;;;;;;;16.31;76.62;100460.94;10419366;28;20113;-61
2023/10/29 07:38:53;;;;;;;13.20;2.17;;;;;;;16.24;77.79;100484.19;10412006;28;20038;-62
2023/10/29 07:43:53;;;;;;;4.60;1.85;;;;;;;15.70;78.25;100424.25;10421751;28;20062;-62
2023/10/29 07:48:55;;;;;;;9.30;2.30;;;;;;;15.70;79.87;100444.84;10437333;28;20484;-60
2023/10/29 07:53:56;;;;;;;13.43;2.25;;;;;;;15.92;81.52;100475.03;10436924;28;20052;-61
2023/10/29 07:58:57;;;;;;;9.85;1.98;;;;;;;15.80;82.85;100479.31;10431524;28;20541;-60
2023/10/29 08:03:58;;;;;;;14.85;2.40;;;;;;;15.66;84.26;100471.16;10428612;28;20124;-62
2023/10/29 08:08:59;;;;;;;17.60;2.28;;;;;;;15.71;85.50;100487.50;10425268;28;20053;-60
2023/10/29 08:14:00;;;;;;;12.25;2.38;;;;;;;15.77;86.61;100482.38;10409826;28;20049;-60
2023/10/29 08:19:00;;;;;;;9.52;2.05;;;;;;;15.83;87.25;100470.88;10410273;28;20044;-61
2023/10/29 08:24:01;;;;;;;7.30;2.00;;;;;;;15.93;87.02;100482.84;10415171;28;20408;-62
2023/10/29 08:29:03;;;;;;;7.22;2.05;;;;;;;16.02;87.18;100480.81;10440682;28;20075;-61
2023/10/29 08:34:04;;;;;;;7.25;2.08;;;;;;;15.69;86.94;100427.13;10440237;28;20081;-60
2023/10/29 08:39:05;;;;;;;7.97;2.30;;;;;;;16.02;87.05;100467.44;10451567;28;20075;-60
2023/10/29 08:44:05;;;;;;;9.25;2.13;;;;;;;16.28;87.56;100484.63;10451060;28;20052;-60
2023/10/29 08:49:06;;;;;;;8.63;2.20;;;;;;;16.51;87.99;100485.13;10449855;28;20420;-60
2023/10/29 08:54:08;;;;;;;7.88;2.20;;;;;;;16.77;87.88;100470.09;10449717;28;20033;-60
2023/10/29 08:59:09;;;;;;;5.78;2.03;;;;;;;16.58;87.54;100407.34;10448344;28;20124;-60
2023/10/29 09:04:10;;;;;;;8.15;2.45;;;;;;;17.15;86.39;100431.91;10449747;28;20041;-61
2023/10/29 09:09:12;;;;;;;8.65;2.47;;;;;;;17.79;83.82;100450.75;10449019;28;20135;-61
2023/10/29 09:14:13;;;;;;;8.95;2.17;;;;;;;18.16;83.20;100445.63;10449415;28;20045;-60
2023/10/29 09:19:17;;;;;;;8.80;2.25;;;;;;;18.33;82.85;100450.50;10449188;28;20037;-61
2023/10/29 09:24:18;;;;;;;10.15;2.38;;;;;;;18.53;81.86;100447.69;10448217;28;20036;-61
2023/10/29 09:29:18;;;;;;;12.48;2.53;;;;;;;18.51;80.96;100437.13;10449210;28;20045;-61
2023/10/29 09:34:19;;;;;;;9.70;2.53;;;;;;;18.58;81.06;100442.47;10439652;28;20424;-61
2023/10/29 09:39:21;;;;;;;12.05;2.45;;;;;;;18.73;79.62;100459.16;10448237;28;20088;-62
2023/10/29 09:44:22;;;;;;;6.03;2.08;;;;;;;18.70;77.74;100456.88;10447341;28;20041;-61
2023/10/29 09:49:23;;;;;;;6.07;2.22;;;;;;;18.65;76.65;100438.69;10442022;28;20141;-64
2023/10/29 09:54:25;;;;;;;9.18;1.92;;;;;;;18.82;75.30;100444.38;10442574;28;20089;-62
2023/10/29 09:59:26;;;;;;;7.60;2.00;;;;;;;18.91;74.64;100453.00;10406491;28;20080;-62
2023/10/29 10:04:27;;;;;;;6.20;2.20;;;;;;;18.91;74.37;100447.63;10403419;28;20142;-64
2023/10/29 10:09:54;;;;;;;11.20;2.17;;;;;;;19.07;74.72;100444.38;10439625;28;20073;-66
2023/10/29 10:15:04;;;;;;;8.68;2.08;;;;;;;18.91;73.18;100391.91;10441415;28;20048;-62
2023/10/29 10:20:11;;;;;;;12.18;2.30;;;;;;;19.31;73.88;100433.78;10441394;28;20419;-62
2023/10/29 10:25:19;;;;;;;7.40;2.17;;;;;;;19.61;73.22;100441.94;10447274;28;20041;-64
2023/10/29 10:30:24;;;;;;;9.38;2.25;;;;;;;19.78;71.56;100436.81;10447714;28;20044;-62
2023/10/29 10:35:38;;;;;;;7.88;2.15;;;;;;;19.91;70.87;100442.03;10434839;28;20049;-63
2023/10/29 10:40:39;;;;;;;7.57;1.95;;;;;;;19.79;67.73;100384.53;10422084;28;20057;-64
2023/10/29 10:45:41;;;;;;;13.90;5.93;;;;;;;20.49;64.51;100444.13;10447048;28;20527;-63
2023/10/29 10:50:43;;;;;;;8.93;2.10;;;;;;;20.51;61.90;100425.00;10437654;28;20106;-62
2023/10/29 10:55:47;;;;;;;6.13;1.50;;;;;;;20.40;59.84;100399.66;10447365;28;20048;-63
2023/10/29 11:00:49;;;;;;;70.15;38.08;;;;;;;20.66;59.03;100413.78;10436379;28;20056;-63
2023/10/29 11:05:50;;;;;;;18.70;7.20;;;;;;;20.89;57.96;100410.28;10417221;28;20081;-63
2023/10/29 11:10:53;;;;;;;468.23;336.00;;;;;;;20.97;56.84;100420.75;10435537;28;20140;-62
2023/10/29 11:15:55;;;;;;;493.80;352.20;;;;;;;20.86;56.82;100411.56;10430603;28;20536;-62
2023/10/29 11:20:56;;;;;;;127.05;50.80;;;;;;;21.30;56.67;100427.41;10431147;28;20394;-61
2023/10/29 11:26:21;;;;;;;241.02;141.82;;;;;;;21.55;56.33;100427.19;10431294;28;20037;-61
2023/10/29 11:31:24;;;;;;;34.78;20.58;;;;;;;21.49;57.07;100423.53;10434568;28;20081;-62
2023/10/29 11:36:35;;;;;;;;;;;;;;;21.65;57.25;100421.97;10431545;28;20060;-62
2023/10/29 11:41:38;;;;;;;11.07;4.60;;;;;;;21.48;57.13;100434.56;10433619;28;19963;-62
2023/10/29 11:46:57;;;;;;;387.15;225.05;;;;;;;21.57;55.53;100438.59;10430154;28;20034;-61
2023/10/29 11:52:02;;;;;;;45.83;21.65;;;;;;;21.44;56.50;100426.13;10426870;28;20413;-62
2023/10/29 11:57:06;;;;;;;30.80;15.13;;;;;;;21.38;55.32;100414.38;10428261;28;20135;-63
2023/10/29 12:02:07;;;;;;;25.73;9.75;;;;;;;21.10;55.56;100374.59;10421993;28;20045;-62
2023/10/29 12:07:07;;;;;;;32.92;17.52;;;;;;;21.22;55.50;100425.09;10439892;28;20503;-62
2023/10/29 12:12:09;;;;;;;17.73;6.07;;;;;;;20.89;55.79;100435.41;10446954;28;20041;-61
2023/10/29 12:17:10;;;;;;;118.82;54.85;;;;;;;20.68;56.33;100450.28;10450704;28;20045;-61
2023/10/29 12:22:27;;;;;;;176.82;88.32;;;;;;;20.50;56.37;100448.47;10450514;28;20037;-61
2023/10/29 12:27:30;;;;;;;25.95;14.45;;;;;;;19.97;57.31;100408.75;10451242;28;20124;-61
2023/10/29 12:32:30;;;;;;;28.55;9.73;;;;;;;20.36;57.08;100448.88;10450386;28;20396;-63
2023/10/29 12:37:31;;;;;;;19.17;4.07;;;;;;;20.65;56.23;100463.44;10450481;28;20049;-61
2023/10/29 12:42:52;;;;;;;28.70;4.72;;;;;;;20.78;56.68;100465.91;10449639;28;20105;-64
2023/10/29 12:48:16;;;;;;;11.63;2.70;;;;;;;20.80;56.52;100480.00;10449079;28;20040;-61
2023/10/29 12:53:25;;;;;;;63.30;8.43;;;;;;;20.65;53.33;100468.84;10451095;28;20140;-61
2023/10/29 12:58:28;;;;;;;20.30;8.07;;;;;;;20.16;52.93;100400.59;10449566;28;20128;-62
2023/10/29 13:03:30;;;;;;;45.78;20.40;;;;;;;20.27;52.36;100453.78;10426504;28;20045;-61
2023/10/29 13:08:30;;;;;;;82.53;24.75;;;;;;;20.20;52.20;100464.66;10424468;28;20503;-61
2023/10/29 13:13:31;;;;;;;41.33;16.45;;;;;;;19.52;52.88;100410.97;10444670;28;20071;-62
2023/10/29 13:18:32;;;;;;;42.15;18.23;;;;;;;19.42;53.35;100438.44;10449554;28;20423;-60
2023/10/29 13:23:33;;;;;;;57.22;14.60;;;;;;;19.36;54.85;100466.25;10449490;28;20045;-62
2023/10/29 13:28:34;;;;;;;85.78;12.05;;;;;;;19.24;55.37;100485.03;10448795;28;20045;-60
2023/10/29 13:33:35;;;;;;;72.20;13.30;;;;;;;19.00;56.67;100494.75;10447260;28;20037;-62
2023/10/29 13:38:37;;;;;;;70.10;24.38;;;;;;;18.42;56.85;100451.88;10448488;28;20052;-61
2023/10/29 13:43:38;;;;;;;93.38;26.00;;;;;;;18.37;58.69;100489.38;10449046;28;20041;-60
2023/10/29 13:48:39;;;;;;;80.97;27.27;;;;;;;18.15;59.40;100503.13;10448797;28;20049;-60
2023/10/29 13:53:40;;;;;;;110.25;30.83;;;;;;;17.93;60.38;100504.47;10448297;28;20070;-61
2023/10/29 13:58:42;;;;;;;221.32;41.92;;;;;;;17.66;62.58;100519.81;10448301;28;20048;-60
2023/10/29 14:03:42;;;;;;;173.02;53.58;;;;;;;17.45;62.64;100510.97;10446102;28;20049;-62
2023/10/29 14:08:44;;;;;;;165.40;47.92;;;;;;;16.81;63.47;100468.66;10448134;28;20045;-60
2023/10/29 14:13:44;;;;;;;170.98;48.17;;;;;;;16.57;64.16;100478.09;10448757;28;20049;-61
2023/10/29 14:18:46;;;;;;;161.82;45.60;;;;;;;16.30;64.92;100486.06;10447326;28;20037;-60
2023/10/29 14:23:46;;;;;;;110.15;42.17;;;;;;;16.41;64.96;100540.97;10449694;28;20504;-60
2023/10/29 14:28:47;;;;;;;124.40;42.72;;;;;;;15.98;65.25;100506.38;10453511;28;20048;-61
2023/10/29 14:33:50;;;;;;;131.05;50.45;;;;;;;15.92;65.82;100540.16;10454330;28;20048;-61
2023/10/29 14:38:51;;;;;;;122.03;46.83;;;;;;;15.50;66.44;100509.78;10454098;28;20144;-64
2023/10/29 14:43:52;;;;;;;114.20;45.72;;;;;;;15.71;67.53;100569.69;10446170;28;20045;-60
2023/10/29 14:48:52;;;;;;;114.88;44.17;;;;;;;15.22;67.93;100517.00;10452330;28;20045;-60
2023/10/29 14:53:53;;;;;;;113.93;42.42;;;;;;;15.42;68.29;100554.63;10453375;28;21156;-60
2023/10/29 14:58:54;;;;;;;100.25;37.13;;;;;;;15.28;68.92;100575.09;10444780;28;20037;-61
2023/10/29 15:03:55;;;;;;;62.60;27.23;;;;;;;15.22;69.08;100595.41;10431768;28;20045;-60
2023/10/29 15:08:55;;;;;;;86.20;28.83;;;;;;;14.86;69.41;100576.75;10412947;28;20049;-59
2023/10/29 15:13:56;;;;;;;88.70;35.30;;;;;;;14.79;71.06;100595.44;10410935;28;20037;-60
2023/10/29 15:18:57;;;;;;;86.45;31.63;;;;;;;14.68;71.59;100587.88;10411804;28;20037;-60
2023/10/29 15:24:00;;;;;;;83.15;28.27;;;;;;;14.69;72.51;100608.28;10407733;28;20042;-61
2023/10/29 15:29:01;;;;;;;60.97;26.63;;;;;;;14.30;72.32;100561.31;10411773;28;20045;-60
2023/10/29 15:34:02;;;;;;;59.65;25.42;;;;;;;14.42;72.91;100606.25;10410838;28;20053;-60
2023/10/29 15:39:04;;;;;;;61.30;25.30;;;;;;;14.29;73.41;100628.31;10423300;28;20037;-59
2023/10/29 15:44:05;;;;;;;68.07;24.20;;;;;;;14.21;73.50;100631.06;10436817;28;20048;-61
2023/10/29 15:49:06;;;;;;;94.90;34.83;;;;;;;13.94;74.89;100630.72;10439963;28;20049;-60
2023/10/29 15:54:09;;;;;;;102.32;35.88;;;;;;;13.83;75.32;100640.00;10437011;28;20560;-63
2023/10/29 15:59:10;;;;;;;109.03;37.05;;;;;;;13.71;75.48;100636.09;10428555;28;20045;-60
2023/10/29 16:04:10;;;;;;;85.05;28.05;;;;;;;13.59;75.73;100634.88;10410606;28;20400;-61
2023/10/29 16:09:11;;;;;;;49.28;18.60;;;;;;;13.41;75.46;100643.19;10429346;28;20143;-63
2023/10/29 16:14:13;;;;;;;75.45;20.38;;;;;;;13.37;76.41;100656.09;10447994;28;20411;-61
2023/10/29 16:19:14;;;;;;;86.93;30.38;;;;;;;13.51;76.83;100654.44;10449957;28;20420;-61
2023/10/29 16:24:16;;;;;;;75.40;27.35;;;;;;;13.54;77.30;100639.91;10448832;28;20037;-60
2023/10/29 16:29:17;;;;;;;116.82;42.10;;;;;;;13.20;77.85;100580.63;10450442;28;20041;-60
2023/10/29 16:34:18;;;;;;;102.82;41.80;;;;;;;13.06;78.10;100554.72;10447805;28;20063;-61
2023/10/29 16:39:19;;;;;;;87.50;35.50;;;;;;;13.62;77.66;100646.03;10449542;28;20047;-62
2023/10/29 16:44:20;;;;;;;66.88;27.10;;;;;;;13.74;77.57;100673.13;10447311;28;20127;-62
2023/10/29 16:49:22;;;;;;;59.65;24.52;;;;;;;13.78;77.57;100658.38;10449689;28;20092;-61
2023/10/29 16:54:23;;;;;;;74.68;29.92;;;;;;;13.96;77.30;100666.06;10450246;28;20041;-60
2023/10/29 16:59:24;;;;;;;112.55;47.33;;;;;;;13.90;77.27;100664.94;10449808;28;20143;-60
2023/10/29 17:04:25;;;;;;;98.95;42.33;;;;;;;13.84;77.53;100672.84;10449744;28;20714;-60
2023/10/29 17:09:29;;;;;;;82.10;33.83;;;;;;;13.84;78.15;100686.22;10449065;28;20501;-60
2023/10/29 17:14:30;;;;;;;92.00;34.80;;;;;;;13.80;78.32;100693.75;10448693;28;20135;-60
2023/10/29 17:19:31;;;;;;;88.32;32.17;;;;;;;13.73;78.77;100700.84;10449076;28;20119;-60
2023/10/29 17:24:32;;;;;;;93.78;31.77;;;;;;;13.84;79.01;100718.25;10448566;28;20040;-60
2023/10/29 17:29:35;;;;;;;83.90;34.03;;;;;;;13.74;79.27;100720.34;10449197;28;20129;-60
2023/10/29 17:34:36;;;;;;;88.53;34.33;;;;;;;13.72;80.01;100727.69;10448596;28;20147;-61
2023/10/29 17:39:37;;;;;;;82.00;31.67;;;;;;;13.70;80.27;100728.72;10449781;28;20049;-62
2023/10/29 17:44:38;;;;;;;82.75;36.25;;;;;;;13.40;80.56;100658.38;10447036;28;20098;-62
2023/10/29 17:49:39;;;;;;;96.05;37.80;;;;;;;13.49;81.39;100675.19;10448767;28;20072;-61
2023/10/29 17:54:41;;;;;;;106.78;45.95;;;;;;;13.89;81.93;100742.59;10447838;28;20069;-62
2023/10/29 17:59:41;;;;;;;115.50;47.17;;;;;;;13.57;83.29;100708.97;10447274;28;20060;-62
2023/10/29 18:04:43;;;;;;;124.25;48.00;;;;;;;13.81;84.43;100750.66;10448074;28;20124;-62
2023/10/29 18:09:44;;;;;;;117.55;45.47;;;;;;;13.71;85.28;100748.22;10448072;28;20041;-62
2023/10/29 18:14:45;;;;;;;118.82;49.03;;;;;;;13.78;86.03;100756.34;10447359;28;20045;-62
2023/10/29 18:19:46;;;;;;;128.77;50.63;;;;;;;13.73;86.77;100748.91;10446461;28;20124;-62
2023/10/29 18:24:48;;;;;;;113.35;47.00;;;;;;;13.45;87.69;100757.41;10447582;28;20068;-62
2023/10/29 18:29:49;;;;;;;96.88;38.80;;;;;;;13.32;87.96;100746.50;10447680;28;20045;-63
2023/10/29 18:34:50;;;;;;;74.53;32.75;;;;;;;13.31;88.48;100728.84;10446411;28;20074;-63
2023/10/29 18:39:51;;;;;;;51.83;21.70;;;;;;;13.47;88.25;100757.25;10446128;28;20045;-63
2023/10/29 18:44:52;;;;;;;47.72;22.30;;;;;;;13.52;87.54;100765.56;10446748;28;20041;-62
2023/10/29 18:49:57;;;;;;;55.58;22.52;;;;;;;13.48;88.10;100749.03;10444796;28;20037;-59
2023/10/29 18:54:58;;;;;;;117.32;28.90;;;;;;;13.65;87.73;100768.47;10444609;28;20048;-60
2023/10/29 18:59:59;;;;;;;77.88;31.08;;;;;;;13.76;88.20;100771.72;10444367;28;20040;-60
2023/10/29 19:05:00;;;;;;;66.15;28.25;;;;;;;13.40;88.78;100717.09;10443721;28;20048;-61
2023/10/29 19:10:01;;;;;;;64.20;26.17;;;;;;;13.79;88.83;100792.72;10445388;28;20041;-59
2023/10/29 19:15:03;;;;;;;68.78;26.88;;;;;;;13.27;88.48;100745.34;10452669;28;20041;-60
2023/10/29 19:20:05;;;;;;;45.50;20.50;;;;;;;13.54;88.21;100790.22;10453351;28;20033;-60
2023/10/29 19:25:07;;;;;;;76.43;26.42;;;;;;;13.48;87.92;100769.56;10451958;28;20067;-61
2023/10/29 19:30:08;;;;;;;52.53;24.48;;;;;;;13.69;87.69;100792.97;10453266;28;20041;-60
2023/10/29 19:35:09;;;;;;;99.95;42.05;;;;;;;13.74;87.73;100792.44;10452308;28;20113;-59
2023/10/29 19:40:11;;;;;;;60.70;27.70;;;;;;;13.64;88.11;100803.31;10451317;28;20033;-60
2023/10/29 19:45:12;;;;;;;70.53;29.08;;;;;;;13.65;88.41;100808.50;10452984;28;20037;-60
2023/10/29 19:50:13;;;;;;;57.60;24.77;;;;;;;13.65;88.38;100803.16;10450234;28;20097;-60
2023/10/29 19:55:15;;;;;;;53.38;24.75;;;;;;;13.68;88.06;100810.81;10452593;28;20041;-61
2023/10/29 20:00:20;;;;;;;57.05;27.27;;;;;;;13.66;88.74;100820.00;10452428;28;20041;-61
2023/10/29 20:05:21;;;;;;;52.38;24.48;;;;;;;13.72;89.10;100821.16;10452242;28;20090;-61
2023/10/29 20:10:22;;;;;;;42.25;22.50;;;;;;;13.63;89.28;100807.00;10452553;28;20037;-63
2023/10/29 20:15:24;;;;;;;40.15;21.40;;;;;;;13.62;89.63;100805.38;10452128;28;20041;-61
2023/10/29 20:20:26;;;;;;;59.22;22.02;;;;;;;13.63;90.04;100826.53;10450781;28;20062;-61
2023/10/29 20:25:27;;;;;;;53.55;20.20;;;;;;;13.31;90.67;100794.69;10451485;28;20216;-61
2023/10/29 20:30:28;;;;;;;42.65;18.70;;;;;;;13.46;91.21;100851.63;10450618;28;20045;-61
2023/10/29 20:35:29;;;;;;;27.58;12.00;;;;;;;13.33;91.14;100846.03;10452252;28;20060;-61
2023/10/29 20:40:30;;;;;;;24.70;9.80;;;;;;;13.23;90.51;100825.72;10451125;28;20102;-61
2023/10/29 20:45:31;;;;;;;22.80;9.45;;;;;;;13.40;89.13;100852.34;10450670;28;20060;-61
2023/10/29 20:50:31;;;;;;;17.67;8.85;;;;;;;13.22;88.63;100840.06;10449934;28;20048;-61
2023/10/29 20:55:32;;;;;;;18.63;7.82;;;;;;;13.40;88.26;100874.56;10451264;28;20049;-61
2023/10/29 21:00:33;;;;;;;17.88;7.80;;;;;;;13.45;87.99;100882.00;10449799;28;20048;-62
2023/10/29 21:05:34;;;;;;;18.42;7.60;;;;;;;13.29;88.21;100858.91;10450209;28;20037;-61
2023/10/29 21:10:34;;;;;;;20.48;8.00;;;;;;;13.26;89.02;100866.44;10450255;28;20127;-61
2023/10/29 21:15:43;;;;;;;16.27;7.88;;;;;;;13.22;87.24;100848.06;10450562;28;20033;-61
2023/10/29 21:20:45;;;;;;;20.70;7.63;;;;;;;13.38;87.01;100863.19;10449731;28;20048;-61
2023/10/29 21:25:46;;;;;;;57.83;9.15;;;;;;;13.52;86.72;100874.13;10450000;28;20545;-61
2023/10/29 21:30:47;;;;;;;31.60;9.43;;;;;;;13.19;86.25;100816.41;10449522;28;20503;-62
2023/10/29 21:35:49;;;;;;;16.98;8.32;;;;;;;13.66;84.95;100900.09;10449318;28;20053;-62
2023/10/29 21:40:49;;;;;;;18.85;7.72;;;;;;;13.67;85.24;100901.75;10449603;28;20041;-61
2023/10/29 21:45:50;;;;;;;17.13;8.00;;;;;;;13.71;85.50;100913.78;10449064;28;20408;-61
2023/10/29 21:50:58;;;;;;;12.40;7.57;;;;;;;13.63;85.24;100903.13;10448150;28;20461;-60
2023/10/29 21:56:05;;;;;;;21.98;8.63;;;;;;;13.66;85.35;100895.59;10449364;28;20048;-61
2023/10/29 22:01:11;;;;;;;19.13;8.82;;;;;;;13.87;84.47;100931.53;10448678;28;20041;-61
2023/10/29 22:06:11;;;;;;;28.08;8.95;;;;;;;13.79;84.29;100919.06;10448520;28;20050;-62
2023/10/29 22:11:12;;;;;;;47.17;9.13;;;;;;;13.90;84.39;100933.84;10448902;28;20048;-61
2023/10/29 22:16:14;;;;;;;30.25;7.10;;;;;;;13.90;83.83;100932.00;10448158;28;20109;-61
2023/10/29 22:21:15;;;;;;;16.58;6.38;;;;;;;13.95;83.32;100944.03;10446459;28;20041;-61
2023/10/29 22:26:16;;;;;;;13.60;5.03;;;;;;;14.05;82.76;100963.31;10447228;28;20041;-61
2023/10/29 22:31:16;;;;;;;21.40;6.40;;;;;;;13.96;82.86;100951.03;10447287;28;20427;-61
2023/10/29 22:36:17;;;;;;;28.58;6.70;;;;;;;13.88;82.96;100936.72;10447234;28;20049;-61
2023/10/29 22:41:18;;;;;;;16.30;5.28;;;;;;;14.03;82.48;100960.84;10414593;28;20527;-61
2023/10/29 22:46:22;;;;;;;12.93;5.40;;;;;;;13.91;82.56;100948.91;10410240;28;20044;-61